CheckWX is a tool to help pilots better visualize weather data.  It is not intended as a substitute for an official pre-flight weather briefing.

13:42:34 UTC

KCEC METAR
Jack Mc Namara Field Airport
Crescent City, California, USA
Current

34 mins ago

KCEC 201309Z AUTO 00000KT 3SM BR OVC008 09/08 A2996 RMK AO2 T00890083
Observed
Jul-20 @ 13:09 UTC
Visibility
3 SM
Flight Rules
IFR
Conditions
Mist
Cloud Levels
  • Overcast at 800' AGL
Temperature
C / 48°F
Dewpoint
C / 46°F
Humidity
94%
Altimeter
29.96" Hg
Pressure
1014.52 hPa
Previous

37 mins ago

KCEC 201306Z AUTO 00000KT 1 1/2SM BR OVC008 09/08 A2996 RMK AO2 T00890083
Observed
Jul-20 @ 13:06 UTC
Visibility
1 1/2 SM
Flight Rules
IFR
Conditions
Mist
Cloud Levels
  • Overcast at 800' AGL
Temperature
C / 48°F
Dewpoint
C / 46°F
Humidity
94%
Altimeter
29.96" Hg
Pressure
1014.52 hPa
Previous

47 mins ago

KCEC 201256Z AUTO 00000KT 3/4SM BR VV008 08/07 A2996 RMK AO2 SLP145 T00780072
Observed
Jul-20 @ 12:56 UTC
Visibility
3/4 SM
Flight Rules
LIFR
Conditions
Mist
Cloud Levels
  • Vertical visibility at 800' AGL
Temperature
C / 46°F
Dewpoint
C / 45°F
Humidity
93%
Altimeter
29.96" Hg
Pressure
1014.52 hPa